There are multiple Weather-warnings   Click here for more information


Meteo18 Weather Cam more information Meteo18 Weather Cam


warning for Thunderstorms more information blitzortung!


Rain radar more information rain snow radar


Visit our other weather sites:

Template documentation
and downloads

And another site



Weather Underground History page Text

Daily Summary for July 31, 2017 Units:  English    Metric   Both
« Previous Day
Next Day »
Daily Weekly Monthly Yearly Custom
  High: Low: Average:
Temperature: 78.1 °F 57.6 °F 68 °F
Dew Point: 61.9 °F 54 °F 58.1 °F
Humidity: 92 % 54 % 72 %
Wind Speed: 11 mph 0 mph 2.5 mph
Wind Gust: 15 mph - -
Wind:- - SSE
Pressure: 30 in 29.9 in -
Precipitation: 0.65 in    
Historical Graphs
 
 
Tabular Data for July 31, 2017
Time Temperature Dew Point Pressure Wind Wind Speed Wind Gust Humidity Rainfall Rate (Hourly)
00:02 67.5 °F 57.4 °F 30 in SSW 1 mph 4 mph 70 % 0 in
00:12 66.9 °F 57.2 °F 30 in South 3 mph 4 mph 71 % 0 in
00:17 66.7 °F 57 °F 30 in SSW 2 mph 5 mph 71 % 0 in
00:22 66.7 °F 56.7 °F 30 in SW 2 mph 5 mph 70 % 0 in
00:32 66.7 °F 56.7 °F 30 in SSW 1 mph 5 mph 70 % 0 in
00:37 66.9 °F 56.8 °F 30 in SW 2 mph 5 mph 70 % 0 in
00:47 66.7 °F 56.7 °F 30 in Calm   4 mph 70 % 0 in
00:52 66.6 °F 56.8 °F 30 in Calm   4 mph 71 % 0 in
01:02 66 °F 56.7 °F 30 in Calm   2 mph 72 % 0 in
01:09 65.8 °F 56.5 °F 30 in Calm     72 % 0 in
01:17 66 °F 56.3 °F 30 in WSW 1 mph 1 mph 71 % 0 in
01:22 66 °F 56.3 °F 30 in Calm   2 mph 71 % 0 in
01:32 66 °F 56.3 °F 30 in Calm   2 mph 71 % 0 in
01:42 65.5 °F 56.7 °F 30 in Calm   1 mph 73 % 0 in
01:52 64.8 °F 56.3 °F 30 in Calm   1 mph 74 % 0 in
02:02 64.6 °F 56.1 °F 30 in SE 1 mph 2 mph 74 % 0 in
02:07 64.6 °F 56.1 °F 30 in Calm   2 mph 74 % 0 in
02:12 64.4 °F 55.9 °F 30 in Calm   2 mph 74 % 0 in
02:17 64.2 °F 56.1 °F 30 in Calm   1 mph 75 % 0 in
02:22 63.9 °F 56.5 °F 30 in Calm   1 mph 77 % 0 in
02:27 63.3 °F 56.3 °F 30 in Calm   1 mph 78 % 0 in
02:32 63.1 °F 56.5 °F 30 in Calm     79 % 0 in
02:42 63.7 °F 56.3 °F 30 in Calm   1 mph 77 % 0 in
02:52 63.9 °F 56.1 °F 30 in Calm   2 mph 76 % 0 in
02:57 63.7 °F 56.3 °F 30 in Calm   1 mph 77 % 0 in
03:02 63.3 °F 55.9 °F 30 in Calm   1 mph 77 % 0 in
03:12 63.1 °F 56.1 °F 30 in Calm   1 mph 78 % 0 in
03:17 63 °F 55.6 °F 30 in Calm   1 mph 77 % 0 in
03:22 62.8 °F 55.8 °F 30 in Calm   1 mph 78 % 0 in
03:32 63 °F 55.6 °F 30 in Calm   3 mph 77 % 0 in
03:42 63.1 °F 55.8 °F 30 in West 1 mph 3 mph 77 % 0 in
03:47 63 °F 55.6 °F 30 in WNW 2 mph 3 mph 77 % 0 in
03:52 63 °F 55.6 °F 30 in WNW 2 mph 3 mph 77 % 0 in
03:57 63 °F 55.6 °F 30 in Calm   3 mph 77 % 0 in
04:02 63 °F 55.6 °F 30 in WNW 2 mph 4 mph 77 % 0 in
04:12 63.3 °F 55.6 °F 30 in NE 2 mph 4 mph 76 % 0 in
04:17 63.1 °F 55.4 °F 30 in ESE 2 mph 5 mph 76 % 0 in
04:22 63.1 °F 55.4 °F 30 in Calm   5 mph 76 % 0 in
04:32 62.1 °F 55.4 °F 30 in Calm   4 mph 79 % 0 in
04:42 61.2 °F 54.9 °F 30 in Calm   4 mph 80 % 0 in
04:47 60.6 °F 55 °F 30 in Calm   3 mph 82 % 0 in
04:52 60.3 °F 55 °F 30 in Calm   1 mph 83 % 0 in
04:57 60.3 °F 55 °F 30 in Calm   1 mph 83 % 0 in
05:02 60.1 °F 54.9 °F 30 in Calm   1 mph 83 % 0 in
05:12 60.6 °F 55 °F 30 in Calm   1 mph 82 % 0 in
05:17 60.1 °F 54.5 °F 30 in WNW 1 mph 1 mph 82 % 0 in
05:22 59.5 °F 54.7 °F 30 in Calm   2 mph 84 % 0 in
05:32 59.4 °F 54.9 °F 30 in Calm   2 mph 85 % 0 in
05:37 59.2 °F 54.7 °F 30 in Calm   2 mph 85 % 0 in
05:42 59.4 °F 54.9 °F 30 in Calm   1 mph 85 % 0 in
05:52 59 °F 54.5 °F 30 in Calm     85 % 0 in
05:57 58.8 °F 54.3 °F 30 in Calm     85 % 0 in
06:02 58.6 °F 54.5 °F 30 in Calm     86 % 0 in
06:12 58.6 °F 54.5 °F 30 in Calm     86 % 0 in
06:17 58.5 °F 54.3 °F 30 in Calm   1 mph 86 % 0 in
06:22 58.3 °F 54.5 °F 30 in Calm   1 mph 87 % 0 in
06:32 57.9 °F 54.1 °F 30 in Calm   1 mph 87 % 0 in
06:42 57.9 °F 54.3 °F 30 in Calm   1 mph 88 % 0 in
06:47 57.7 °F 54.1 °F 30 in Calm   1 mph 88 % 0 in
06:52 57.6 °F 54 °F 30 in Calm   2 mph 88 % 0 in
07:02 57.6 °F 54.3 °F 30 in Calm   1 mph 89 % 0 in
07:12 57.6 °F 54.3 °F 30 in Calm   1 mph 89 % 0 in
07:17 57.9 °F 54.7 °F 30 in NNW 2 mph 2 mph 89 % 0 in
07:22 58.6 °F 55.4 °F 30 in Calm   2 mph 89 % 0 in
07:32 59.4 °F 55.4 °F 30 in North 2 mph 4 mph 87 % 0 in
07:42 59.9 °F 55.8 °F 30 in Calm   4 mph 86 % 0 in
07:52 61 °F 56.5 °F 30 in Calm   5 mph 85 % 0 in
07:57 61.5 °F 56.7 °F 30 in Calm   4 mph 84 % 0 in
08:02 62.4 °F 57.2 °F 30 in Calm   4 mph 83 % 0 in
08:07 63.1 °F 57.2 °F 30 in Calm   2 mph 81 % 0 in
08:12 63.5 °F 57.6 °F 30 in Calm   2 mph 81 % 0 in
08:17 63.3 °F 57.4 °F 30 in Calm     81 % 0 in
08:22 63.3 °F 57.7 °F 30 in Calm     82 % 0 in
08:32 63.9 °F 57.6 °F 30 in Calm     80 % 0 in
08:37 64 °F 57.4 °F 30 in Calm     79 % 0 in
08:42 63.9 °F 57.6 °F 30 in Calm     80 % 0 in
08:52 63.9 °F 57.6 °F 30 in Calm     80 % 0 in
09:02 64.4 °F 57.4 °F 30 in NNE 4 mph   78 % 0 in
09:12 64.8 °F 57.4 °F 30 in ENE 2 mph 6 mph 77 % 0 in
09:17 64.8 °F 57 °F 30 in NE 3 mph 6 mph 76 % 0 in
09:22 64.9 °F 56.8 °F 30 in NNE 5 mph 6 mph 75 % 0 in
09:32 64.9 °F 56.5 °F 30 in NNE 3 mph 7 mph 74 % 0 in
09:42 65.5 °F 56.7 °F 30 in ENE 3 mph 6 mph 73 % 0 in
09:47 65.8 °F 56.5 °F 30 in NNE 3 mph 6 mph 72 % 0 in
09:52 65.8 °F 56.5 °F 30 in NE 3 mph 5 mph 72 % 0 in
10:02 65.8 °F 56.1 °F 30 in ENE 3 mph 6 mph 71 % 0 in
10:12 66.2 °F 57.2 °F 30 in Calm   7 mph 73 % 0 in
10:17 66.7 °F 56.3 °F 30 in ESE 1 mph 7 mph 69 % 0 in
10:22 66.9 °F 56.8 °F 30 in ENE 3 mph 4 mph 70 % 0 in
10:32 66.7 °F 56.7 °F 30 in ENE 4 mph 8 mph 70 % 0 in
10:37 66.7 °F 57 °F 30 in East 1 mph 8 mph 71 % 0 in
10:42 67.3 °F 57.6 °F 30 in ENE 2 mph 8 mph 71 % 0 in
10:52 68.5 °F 57.6 °F 30 in Calm   4 mph 68 % 0 in
10:57 68.7 °F 57.7 °F 30 in NE 2 mph 4 mph 68 % 0 in
11:02 68.7 °F 57.7 °F 30 in ENE 1 mph 4 mph 68 % 0 in
11:12 68.2 °F 57.2 °F 30 in Calm   4 mph 68 % 0 in
11:22 68.5 °F 57.2 °F 30 in ENE 2 mph 8 mph 67 % 0 in
11:32 69.3 °F 57.4 °F 30 in East 6 mph 7 mph 66 % 0 in
11:42 69.3 °F 56.1 °F 30 in ENE 1 mph 8 mph 63 % 0 in
11:52 69.4 °F 56.7 °F 30 in NE 4 mph 8 mph 64 % 0 in
11:57 70 °F 56.8 °F 30 in NNE 1 mph 8 mph 63 % 0 in
12:02 70.5 °F 57.4 °F 30 in ENE 2 mph 8 mph 63 % 0 in
12:12 71.1 °F 57.4 °F 30 in NE 7 mph 10 mph 62 % 0 in
12:17 71.1 °F 56.8 °F 30 in ENE 3 mph 10 mph 61 % 0 in
12:22 71.1 °F 56.8 °F 30 in NNE 5 mph 10 mph 61 % 0 in
12:27 70.9 °F 56.8 °F 30 in NNW 5 mph 10 mph 61 % 0 in
12:32 71.1 °F 58.3 °F 30 in NE 6 mph 10 mph 64 % 0 in
12:42 70.5 °F 58.6 °F 30 in East 1 mph 10 mph 66 % 0 in
12:47 70.5 °F 59 °F 30 in SSE 1 mph 10 mph 67 % 0 in
12:52 70.9 °F 59.4 °F 30 in ESE 3 mph 8 mph 67 % 0 in
13:02 71.1 °F 59.5 °F 30 in ESE 5 mph 8 mph 67 % 0 in
13:12 71.1 °F 59.2 °F 30 in NE 3 mph 6 mph 66 % 0 in
13:17 71.1 °F 58.6 °F 30 in ENE 1 mph 8 mph 65 % 0 in
13:22 71.1 °F 58.6 °F 30 in SSE 1 mph 8 mph 65 % 0 in
13:32 70.9 °F 58.5 °F 30 in East 2 mph 8 mph 65 % 0 in
13:42 71.6 °F 59.2 °F 30 in East 3 mph 7 mph 65 % 0 in
13:52 72.1 °F 58.8 °F 30 in North 8 mph 9 mph 63 % 0 in
13:57 72.7 °F 59.4 °F 30 in NE 2 mph 12 mph 63 % 0 in
14:02 73.8 °F 59 °F 30 in NNE 3 mph 12 mph 60 % 0 in
14:12 73.2 °F 59.4 °F 30 in ENE 6 mph 10 mph 62 % 0 in
14:17 73.6 °F 59.4 °F 30 in ENE 3 mph 10 mph 61 % 0 in
14:22 73.8 °F 59 °F 30 in ENE 4 mph 10 mph 60 % 0 in
14:32 73.9 °F 58.6 °F 30 in NE 4 mph 10 mph 59 % 0 in
14:42 74.1 °F 58.8 °F 30 in NNW 2 mph 10 mph 59 % 0 in
14:47 74.3 °F 59 °F 30 in Calm   10 mph 59 % 0 in
14:52 74.7 °F 59.4 °F 30 in East 2 mph 10 mph 59 % 0 in
15:02 75.4 °F 59.5 °F 30 in NE 6 mph 8 mph 58 % 0 in
15:07 75.7 °F 59.4 °F 29.9 in NE 3 mph 10 mph 57 % 0 in
15:12 76.1 °F 59.2 °F 29.9 in NNW 1 mph 10 mph 56 % 0 in
15:22 76.3 °F 59.4 °F 29.9 in East 5 mph 10 mph 56 % 0 in
15:27 76.6 °F 59.2 °F 29.9 in NE 6 mph 9 mph 55 % 0 in
15:37 76.5 °F 59.5 °F 29.9 in NNE 4 mph 10 mph 56 % 0 in
15:42 76.3 °F 59.4 °F 29.9 in ESE 3 mph 10 mph 56 % 0 in
15:52 76.8 °F 59.4 °F 29.9 in NE 3 mph 7 mph 55 % 0 in
15:57 77.2 °F 59.7 °F 29.9 in Calm   7 mph 55 % 0 in
16:02 77.5 °F 60.1 °F 29.9 in NNE 6 mph 7 mph 55 % 0 in
16:12 77.7 °F 60.3 °F 29.9 in NNW 4 mph 9 mph 55 % 0 in
16:17 77.9 °F 59.9 °F 29.9 in NNE 11 mph 11 mph 54 % 0 in
16:22 77.5 °F 60.6 °F 29.9 in NE 5 mph 11 mph 56 % 0 in
16:32 77.5 °F 60.6 °F 29.9 in NNE 5 mph 12 mph 56 % 0 in
16:42 77.5 °F 60.6 °F 29.9 in NNE 4 mph 12 mph 56 % 0 in
16:52 78.1 °F 60.1 °F 29.9 in NE 3 mph 8 mph 54 % 0 in
16:57 77.7 °F 61.3 °F 29.9 in NE 7 mph 11 mph 57 % 0 in
17:02 77.4 °F 60.4 °F 29.9 in NNW 2 mph 12 mph 56 % 0 in
17:12 77.4 °F 61 °F 29.9 in NNE 4 mph 12 mph 57 % 0 in
17:17 77.4 °F 61.3 °F 29.9 in North 2 mph 13 mph 58 % 0 in
17:22 77.7 °F 60.8 °F 29.9 in NNE 8 mph 13 mph 56 % 0 in
17:32 77.2 °F 61.3 °F 29.9 in NNW 3 mph 10 mph 58 % 0 in
17:42 76.6 °F 61.2 °F 29.9 in NNE 8 mph 15 mph 59 % 0 in
17:52 76.5 °F 61 °F 29.9 in NNE 3 mph 13 mph 59 % 0 in
17:57 76.6 °F 61.2 °F 29.9 in NW 5 mph 12 mph 59 % 0 in
18:02 76.6 °F 61.7 °F 29.9 in NNE 11 mph 12 mph 60 % 0 in
18:12 76.5 °F 61.5 °F 29.9 in NE 6 mph 12 mph 60 % 0 in
18:17 76.3 °F 61.3 °F 29.9 in NNW 4 mph 12 mph 60 % 0 in
18:22 76.3 °F 61.3 °F 29.9 in NNW 5 mph 12 mph 60 % 0 in
18:32 75.9 °F 61.5 °F 29.9 in NW 3 mph 11 mph 61 % 0 in
18:42 75.9 °F 61.5 °F 29.9 in NNE 6 mph 12 mph 61 % 0 in
18:47 75.7 °F 61.3 °F 29.9 in NNE 5 mph 12 mph 61 % 0 in
18:52 75.7 °F 61.9 °F 29.9 in NNW 4 mph 12 mph 62 % 0 in
19:02 75.7 °F 61.3 °F 29.9 in NNW 5 mph 12 mph 61 % 0 in
19:12 75.9 °F 61.5 °F 29.9 in NE 3 mph 11 mph 61 % 0 in
19:17 75.9 °F 61.5 °F 29.9 in North 6 mph 12 mph 61 % 0 in
19:22 75.7 °F 61.3 °F 29.9 in West 1 mph 12 mph 61 % 0 in
19:32 75.4 °F 61.5 °F 29.9 in NNW 3 mph 12 mph 62 % 0 in
19:42 75.4 °F 61.5 °F 29.9 in NW 2 mph 11 mph 62 % 0 in
19:47 75 °F 61.5 °F 29.9 in NE 4 mph 11 mph 63 % 0 in
19:52 75 °F 61.5 °F 29.9 in NE 8 mph 11 mph 63 % 0 in
19:57 75 °F 61.5 °F 29.9 in East 1 mph 9 mph 63 % 0 in
20:02 75 °F 61.5 °F 29.9 in NW 3 mph 9 mph 63 % 0 in
20:12 74.8 °F 61.3 °F 29.9 in NNW 3 mph 9 mph 63 % 0 in
20:17 74.7 °F 61.2 °F 29.9 in NE 5 mph 11 mph 63 % 0 in
20:22 74.5 °F 61 °F 29.9 in NNW 4 mph 11 mph 63 % 0 in
20:27 74.1 °F 60.8 °F 29.9 in NNE 6 mph 11 mph 63 % 0 in
20:32 73.9 °F 60.6 °F 29.9 in North 7 mph 11 mph 63 % 0 in
20:37 73.8 °F 60.8 °F 29.9 in NNW 5 mph 12 mph 64 % 0 in
20:42 73.8 °F 60.8 °F 29.9 in North 3 mph 12 mph 64 % 0 in
20:52 73.2 °F 60.8 °F 29.9 in NNE 5 mph 10 mph 65 % 0 in
20:57 73 °F 60.6 °F 29.9 in North 4 mph 8 mph 65 % 0 in
21:02 72.9 °F 60.4 °F 29.9 in NNW 2 mph 8 mph 65 % 0 in
21:12 72.5 °F 60.4 °F 29.9 in NNW 2 mph 8 mph 66 % 0 in
21:22 72.1 °F 60.6 °F 29.9 in North 8 mph 8 mph 67 % 0 in
21:27 72 °F 60.4 °F 29.9 in NW 1 mph 8 mph 67 % 0 in
21:32 72 °F 60.4 °F 29.9 in NNW 4 mph 8 mph 67 % 0 in
21:42 71.8 °F 60.3 °F 29.9 in North 4 mph 9 mph 67 % 0 in
21:47 71.2 °F 60.1 °F 29.9 in North 6 mph 10 mph 68 % 0 in
21:52 70.5 °F 60.6 °F 29.9 in WSW 6 mph 10 mph 71 % 0 in
22:02 66.6 °F 61.2 °F 29.9 in WNW 9 mph 13 mph 83 % 0.02 in
22:12 64.2 °F 61 °F 29.9 in North 3 mph 13 mph 89 % 0.28 in
22:17 64.2 °F 61.2 °F 29.9 in NNW 4 mph 10 mph 90 % 0.3 in
22:22 64.2 °F 61.2 °F 30 in North 4 mph 9 mph 90 % 0.3 in
22:32 64.6 °F 61.3 °F 29.9 in WNW 5 mph 6 mph 89 % 0.3 in
22:42 64.6 °F 61.3 °F 29.9 in NW 1 mph 8 mph 89 % 0.3 in
22:52 64.2 °F 61 °F 30 in WNW 8 mph 11 mph 89 % 0.31 in
22:57 64.2 °F 60.6 °F 29.9 in NNW 3 mph 10 mph 88 % 0.31 in
23:02 63.7 °F 60.4 °F 30 in NNW 6 mph 10 mph 89 % 0.2 in
23:12 62.8 °F 60.1 °F 30 in NW 3 mph 11 mph 91 % 0.11 in
23:17 62.6 °F 60.3 °F 29.9 in NNW 5 mph 11 mph 92 % 0.19 in
23:22 62.6 °F 60.3 °F 29.9 in ENE 2 mph 11 mph 92 % 0.19 in
23:27 62.6 °F 59.9 °F 29.9 in North 6 mph 9 mph 91 % 0.19 in
23:32 62.8 °F 60.1 °F 29.9 in NNW 3 mph 10 mph 91 % 0.19 in
23:42 62.8 °F 59.7 °F 29.9 in WNW 11 mph 11 mph 90 % 0.19 in
23:52 61.5 °F 58.6 °F 29.9 in NNW 3 mph 14 mph 90 % 0.24 in
23:57 61.2 °F 58.5 °F 29.9 in East 5 mph 14 mph 91 % 0.34 in
Meteo18
Compliments of Weather Underground - 4 mb

Script developed by  Jim McMurry - jmcmurry@mwt.net Adapted for the template by  Wim van der Kuil - Leuven-Template.eu

You find our weather info also at:

European Weather Network

Weather Underground

Equipment we use:

Weather-station
Davis Vue

Weather-program
Meteohub

Weather-server
Raspberry PI 2 B+

Provider
1 and 1

Davis Vue

Meteohub

Raspberry PI 2 B+

1 and 1